createdAt,value
2018-07-27T00:00:20.737Z,21.35
2018-07-27T00:01:20.739Z,21.41
2018-07-27T00:02:20.741Z,21.46
2018-07-27T00:03:20.736Z,21.32
2018-07-27T00:04:20.738Z,21.39
2018-07-27T00:05:20.749Z,21.42
2018-07-27T00:06:20.738Z,21.48
2018-07-27T00:07:20.738Z,21.46
2018-07-27T00:08:20.740Z,21.45
2018-07-27T00:09:20.735Z,21.41
2018-07-27T00:10:20.737Z,21.30
2018-07-27T00:11:20.734Z,21.36
2018-07-27T00:12:20.730Z,21.30
2018-07-27T00:13:20.732Z,21.29
2018-07-27T00:14:20.730Z,21.29
2018-07-27T00:15:20.729Z,21.27
2018-07-27T00:16:20.729Z,21.42
2018-07-27T00:17:20.726Z,21.41
2018-07-27T00:18:20.729Z,21.48
2018-07-27T00:19:20.724Z,21.48
2018-07-27T00:20:20.731Z,21.46
2018-07-27T00:21:20.727Z,21.48
2018-07-27T00:22:20.725Z,21.41
2018-07-27T00:23:20.725Z,21.46
2018-07-27T00:24:20.727Z,21.56
2018-07-27T00:25:20.727Z,21.61
2018-07-27T00:26:20.724Z,21.66
2018-07-27T00:27:20.721Z,21.59
2018-07-27T00:28:20.713Z,21.61
2018-07-27T00:29:20.719Z,21.46
2018-07-27T00:30:20.719Z,21.53
2018-07-27T00:31:20.720Z,21.64
2018-07-27T00:32:20.718Z,21.67
2018-07-27T00:33:20.717Z,21.60
2018-07-27T00:34:20.714Z,21.61
2018-07-27T00:35:20.713Z,21.53
2018-07-27T00:36:20.714Z,21.57
2018-07-27T00:37:20.716Z,21.53
2018-07-27T00:38:20.715Z,21.53
2018-07-27T00:39:20.712Z,21.59
2018-07-27T00:40:20.712Z,21.60
2018-07-27T00:41:20.714Z,21.54
2018-07-27T00:42:20.714Z,21.59
2018-07-27T00:43:20.708Z,21.60
2018-07-27T00:44:20.708Z,21.59
2018-07-27T00:45:20.710Z,21.61
2018-07-27T00:46:20.706Z,21.54
2018-07-27T00:47:20.705Z,21.45
2018-07-27T00:48:20.707Z,21.32
2018-07-27T00:49:20.706Z,21.30
2018-07-27T00:50:20.714Z,21.30
2018-07-27T00:51:20.703Z,21.11
2018-07-27T00:52:20.706Z,20.90
2018-07-27T00:53:20.701Z,20.65
2018-07-27T00:54:20.701Z,20.49
2018-07-27T00:55:20.702Z,20.12
2018-07-27T00:56:20.700Z,20.16
2018-07-27T00:57:20.696Z,19.93
2018-07-27T00:58:20.695Z,19.86
2018-07-27T00:59:20.695Z,19.72
2018-07-27T01:00:20.694Z,19.60
2018-07-27T01:01:20.732Z,19.35
2018-07-27T01:02:20.710Z,19.24
2018-07-27T01:03:20.693Z,19.28
2018-07-27T01:04:20.695Z,19.13
2018-07-27T01:05:20.692Z,19.17
2018-07-27T01:06:20.691Z,19.13
2018-07-27T01:07:20.687Z,19.10
2018-07-27T01:08:20.690Z,18.99
2018-07-27T01:09:20.686Z,18.99
2018-07-27T01:10:20.690Z,18.95
2018-07-27T01:11:20.686Z,18.94
2018-07-27T01:12:20.681Z,18.77
2018-07-27T01:13:20.681Z,18.84
2018-07-27T01:14:20.693Z,18.73
2018-07-27T01:15:20.682Z,18.80
2018-07-27T01:16:20.680Z,18.90
2018-07-27T01:17:20.678Z,18.82
2018-07-27T01:18:20.678Z,18.80
2018-07-27T01:19:20.673Z,18.79
2018-07-27T01:20:20.674Z,18.79
2018-07-27T01:21:20.670Z,18.83
2018-07-27T01:22:20.671Z,18.86
2018-07-27T01:23:20.667Z,18.79
2018-07-27T01:24:20.659Z,18.92
2018-07-27T01:25:20.667Z,18.90
2018-07-27T01:26:20.665Z,18.97
2018-07-27T01:27:20.661Z,18.99
2018-07-27T01:28:20.663Z,18.97
2018-07-27T01:29:20.660Z,18.98
2018-07-27T01:30:20.674Z,19.01
2018-07-27T01:31:20.655Z,18.99
2018-07-27T02:04:31.452Z,18.44
2018-07-27T02:05:31.431Z,18.40
2018-07-27T02:07:24.319Z,18.47
2018-07-27T02:08:24.306Z,18.42
2018-07-27T02:10:17.252Z,18.42
2018-07-27T02:11:17.224Z,18.42
2018-07-27T02:13:10.219Z,18.37
2018-07-27T02:14:10.104Z,18.43
2018-07-27T02:16:03.025Z,18.46
2018-07-27T02:17:03.005Z,18.49
2018-07-27T02:18:55.915Z,18.52
2018-07-27T02:19:55.918Z,18.46
2018-07-27T02:21:48.850Z,18.52
2018-07-27T02:22:48.839Z,18.46
2018-07-27T02:24:41.799Z,18.43
2018-07-27T02:25:41.745Z,18.44
2018-07-27T02:27:34.673Z,18.50
2018-07-27T02:28:34.665Z,18.52
2018-07-27T02:30:27.609Z,18.52
2018-07-27T02:31:27.592Z,18.52
2018-07-27T02:33:20.521Z,18.47
2018-07-27T02:34:20.506Z,18.44
2018-07-27T02:36:13.420Z,18.49
2018-07-27T02:37:13.394Z,18.50
2018-07-27T02:39:06.309Z,18.64
2018-07-27T02:40:06.323Z,18.65
2018-07-27T02:41:59.257Z,18.64
2018-07-27T02:42:59.234Z,18.65
2018-07-27T02:44:52.161Z,18.65
2018-07-27T02:45:52.140Z,18.76
2018-07-27T02:47:45.049Z,18.74
2018-07-27T02:48:45.040Z,18.73
2018-07-27T02:50:37.973Z,18.73
2018-07-27T02:51:37.951Z,18.80
2018-07-27T02:53:30.853Z,18.79
2018-07-27T02:54:30.841Z,18.86
2018-07-27T02:56:23.745Z,18.82
2018-07-27T02:57:23.723Z,18.77
2018-07-27T02:59:16.644Z,18.61
2018-07-27T03:00:16.635Z,18.72
2018-07-27T03:02:09.677Z,18.65
2018-07-27T03:03:09.643Z,18.70
2018-07-27T03:05:02.567Z,18.82
2018-07-27T03:06:02.553Z,18.82
2018-07-27T03:07:55.523Z,18.84
2018-07-27T03:08:55.509Z,18.83
2018-07-27T03:10:48.415Z,18.97
2018-07-27T03:11:48.393Z,19.08
2018-07-27T03:13:41.358Z,19.02
2018-07-27T03:14:41.353Z,19.11
2018-07-27T03:16:34.286Z,19.13
2018-07-27T03:17:34.270Z,19.15
2018-07-27T03:19:27.193Z,19.17
2018-07-27T03:20:27.180Z,19.13
2018-07-27T03:22:20.091Z,19.10
2018-07-27T03:23:20.071Z,19.08
2018-07-27T03:25:12.976Z,18.99
2018-07-27T03:26:12.971Z,19.08
2018-07-27T03:28:05.901Z,19.14
2018-07-27T03:29:05.873Z,18.98
2018-07-27T03:30:58.792Z,19.15
2018-07-27T03:31:58.769Z,19.13
2018-07-27T03:33:51.681Z,19.14
2018-07-27T03:34:51.673Z,19.15
2018-07-27T03:36:44.613Z,19.14
2018-07-27T03:37:44.597Z,19.15
2018-07-27T03:39:37.525Z,19.20
2018-07-27T03:40:37.522Z,19.20
2018-07-27T03:42:30.422Z,19.17
2018-07-27T03:43:30.404Z,19.14
2018-07-27T03:45:23.364Z,19.13
2018-07-27T03:46:23.356Z,19.25
2018-07-27T03:48:16.265Z,19.23
2018-07-27T03:49:16.244Z,19.24
2018-07-27T03:51:09.168Z,19.24
2018-07-27T03:52:09.148Z,19.35
2018-07-27T03:54:02.080Z,19.28
2018-07-27T03:55:02.067Z,19.23
2018-07-27T03:56:56.022Z,19.23
2018-07-27T03:57:55.998Z,19.23
2018-07-27T03:59:48.940Z,19.23
2018-07-27T04:00:48.929Z,19.23
2018-07-27T04:02:41.851Z,19.17
2018-07-27T04:03:41.839Z,19.13
2018-07-27T04:05:34.779Z,19.10
2018-07-27T04:06:34.774Z,19.08
2018-07-27T04:08:27.677Z,19.05
2018-07-27T04:09:27.659Z,18.92
2018-07-27T04:11:20.570Z,19.11
2018-07-27T04:12:20.537Z,19.11
2018-07-27T04:14:13.446Z,19.24
2018-07-27T04:15:13.423Z,19.20
2018-07-27T04:17:06.320Z,19.20
2018-07-27T04:18:06.304Z,19.21
2018-07-27T04:19:59.216Z,19.25
2018-07-27T04:20:59.202Z,19.23
2018-07-27T04:22:52.160Z,19.24
2018-07-27T04:23:52.140Z,19.28
2018-07-27T04:25:45.051Z,19.36
2018-07-27T04:26:45.030Z,19.23
2018-07-27T04:28:37.973Z,19.38
2018-07-27T04:29:37.955Z,19.38
2018-07-27T04:31:30.863Z,19.40
2018-07-27T04:32:30.842Z,19.51
2018-07-27T04:34:23.757Z,19.51
2018-07-27T04:35:23.739Z,19.60
2018-07-27T04:37:16.653Z,19.68
2018-07-27T04:38:16.638Z,19.58
2018-07-27T04:40:09.536Z,19.79
2018-07-27T04:41:09.528Z,19.80
2018-07-27T04:43:02.496Z,19.76
2018-07-27T04:44:02.450Z,19.80
2018-07-27T04:45:55.386Z,19.88
2018-07-27T04:46:55.364Z,19.84
2018-07-27T04:48:48.472Z,19.84
2018-07-27T04:49:48.451Z,19.84
2018-07-27T04:51:41.390Z,19.79
2018-07-27T04:52:41.372Z,19.83
2018-07-27T04:54:34.330Z,19.83
2018-07-27T04:55:34.318Z,19.83
2018-07-27T04:57:27.232Z,19.69
2018-07-27T04:58:27.218Z,19.65
2018-07-27T05:00:20.110Z,19.78
2018-07-27T05:01:20.100Z,19.83
2018-07-27T05:03:13.019Z,19.87
2018-07-27T05:04:12.999Z,19.95
2018-07-27T05:06:05.934Z,20.12
2018-07-27T05:07:05.917Z,20.00
2018-07-27T05:08:58.911Z,20.05
2018-07-27T05:09:58.893Z,20.23
2018-07-27T05:11:51.887Z,20.27
2018-07-27T05:12:51.823Z,20.33
2018-07-27T05:14:45.726Z,20.47
2018-07-27T05:15:45.717Z,20.50
2018-07-27T05:17:38.655Z,20.64
2018-07-27T05:18:38.635Z,20.61
2018-07-27T05:20:31.546Z,20.72
2018-07-27T05:21:31.535Z,20.81
2018-07-27T05:23:24.490Z,20.80
2018-07-27T05:24:24.460Z,20.79
2018-07-27T05:26:17.363Z,20.90
2018-07-27T05:27:17.355Z,21.06
2018-07-27T05:29:10.281Z,21.02
2018-07-27T05:30:10.256Z,20.90
2018-07-27T05:32:03.206Z,21.06
2018-07-27T05:33:03.189Z,21.13
2018-07-27T05:34:56.101Z,21.11
2018-07-27T05:35:56.090Z,21.21
2018-07-27T05:37:49.027Z,21.35
2018-07-27T05:38:49.000Z,21.30
2018-07-27T05:40:41.907Z,21.19
2018-07-27T05:41:41.900Z,21.32
2018-07-27T05:43:34.813Z,21.35
2018-07-27T05:44:34.786Z,21.38
2018-07-27T05:46:27.720Z,21.39
2018-07-27T05:47:27.692Z,21.42
2018-07-27T05:49:20.612Z,21.44
2018-07-27T05:50:20.594Z,21.63
2018-07-27T05:52:13.506Z,21.71
2018-07-27T05:53:13.499Z,21.56
2018-07-27T05:55:06.415Z,21.64
2018-07-27T05:56:06.393Z,21.78
2018-07-27T05:57:59.345Z,21.63
2018-07-27T05:58:59.334Z,21.81
2018-07-27T06:00:52.224Z,21.79
2018-07-27T06:01:52.206Z,21.91
2018-07-27T06:03:45.119Z,21.91
2018-07-27T06:04:45.160Z,21.98
2018-07-27T06:06:38.025Z,22.02
2018-07-27T06:07:38.015Z,21.98
2018-07-27T06:09:30.928Z,22.09
2018-07-27T06:10:30.917Z,22.10
2018-07-27T06:12:23.827Z,21.99
2018-07-27T06:13:23.822Z,21.97
2018-07-27T06:15:16.735Z,22.13
2018-07-27T06:16:16.719Z,22.09
2018-07-27T06:18:09.683Z,22.52
2018-07-27T06:19:09.633Z,22.47
2018-07-27T06:21:02.610Z,22.54
2018-07-27T06:22:02.577Z,22.72
2018-07-27T06:23:55.570Z,22.90
2018-07-27T06:24:55.479Z,22.86
2018-07-27T06:26:48.383Z,22.96
2018-07-27T06:27:48.381Z,23.02
2018-07-27T06:29:41.306Z,22.82
2018-07-27T06:30:41.285Z,22.87
2018-07-27T06:32:34.287Z,23.11
2018-07-27T06:33:34.255Z,23.32
2018-07-27T06:35:27.168Z,23.53
2018-07-27T06:36:27.155Z,23.52
2018-07-27T06:38:20.085Z,23.55
2018-07-27T06:39:20.063Z,23.55
2018-07-27T06:41:12.995Z,23.92
2018-07-27T06:42:12.995Z,23.82
2018-07-27T06:44:05.937Z,24.08
2018-07-27T06:45:05.926Z,24.39
2018-07-27T06:46:58.848Z,24.57
2018-07-27T06:47:58.838Z,24.47
2018-07-27T06:49:51.781Z,24.63
2018-07-27T06:50:51.773Z,24.68
2018-07-27T06:52:44.676Z,24.83
2018-07-27T06:53:44.675Z,24.88
2018-07-27T06:55:37.709Z,25.15
2018-07-27T06:56:37.593Z,25.12
2018-07-27T06:58:30.512Z,25.16
2018-07-27T06:59:30.498Z,25.28
2018-07-27T07:01:23.479Z,25.67
2018-07-27T07:02:23.478Z,25.56
2018-07-27T07:04:16.414Z,25.83
2018-07-27T07:05:16.390Z,25.87
2018-07-27T07:07:09.325Z,25.90
2018-07-27T07:08:09.314Z,25.97
2018-07-27T07:10:02.464Z,26.04
2018-07-27T07:11:02.449Z,26.05
2018-07-27T07:12:55.402Z,25.86
2018-07-27T07:13:55.391Z,26.06
2018-07-27T07:15:48.344Z,26.50
2018-07-27T07:16:48.329Z,26.68
2018-07-27T07:18:41.280Z,27.11
2018-07-27T07:19:41.269Z,27.79
2018-07-27T07:21:34.205Z,27.99
2018-07-27T07:22:34.207Z,28.25
2018-07-27T07:24:27.167Z,28.46
2018-07-27T07:25:27.237Z,27.89
2018-07-27T07:27:20.122Z,28.36
2018-07-27T07:28:20.110Z,28.17
2018-07-27T07:30:13.050Z,28.68
2018-07-27T07:31:13.040Z,29.16
2018-07-27T07:33:06.022Z,29.43
2018-07-27T07:34:05.977Z,29.49
2018-07-27T07:35:58.910Z,29.26
2018-07-27T07:36:58.905Z,29.87
2018-07-27T07:38:51.870Z,28.87
2018-07-27T07:39:51.861Z,29.06
2018-07-27T07:41:44.820Z,29.19
2018-07-27T07:42:44.828Z,29.22
2018-07-27T07:44:37.823Z,28.62
2018-07-27T07:45:37.817Z,28.97
2018-07-27T07:47:30.804Z,29.47
2018-07-27T07:48:30.792Z,30.19
2018-07-27T07:50:23.759Z,30.30
2018-07-27T07:51:23.750Z,30.40
2018-07-27T07:53:16.794Z,30.80
2018-07-27T07:54:16.796Z,30.57
2018-07-27T07:56:09.629Z,31.12
2018-07-27T07:57:09.638Z,32.07
2018-07-27T07:59:07.990Z,32.36
2018-07-27T08:00:07.921Z,32.07
2018-07-27T08:01:07.943Z,31.36
2018-07-27T08:02:07.996Z,30.40
2018-07-27T08:03:07.979Z,31.02
2018-07-27T08:04:07.983Z,31.67
2018-07-27T08:05:07.999Z,32.30
2018-07-27T08:06:08.025Z,32.99
2018-07-27T08:07:08.031Z,32.88
2018-07-27T08:08:08.055Z,32.29
2018-07-27T08:09:08.068Z,31.82
2018-07-27T08:10:08.077Z,31.84
2018-07-27T08:11:08.150Z,32.55
2018-07-27T08:12:08.111Z,32.54
2018-07-27T08:13:08.128Z,32.99
2018-07-27T08:14:08.144Z,32.18
2018-07-27T08:15:08.162Z,32.00
2018-07-27T08:16:08.175Z,32.06
2018-07-27T08:17:08.196Z,32.06
2018-07-27T08:18:08.211Z,33.01
2018-07-27T08:19:08.228Z,32.86
2018-07-27T08:20:08.252Z,32.24
2018-07-27T08:21:08.276Z,32.06
2018-07-27T08:22:08.281Z,31.50
2018-07-27T08:23:08.293Z,31.40
2018-07-27T08:24:08.313Z,31.50
2018-07-27T08:25:08.329Z,32.05
2018-07-27T08:26:08.347Z,32.17
2018-07-27T08:27:08.366Z,32.54
2018-07-27T08:28:08.380Z,32.47
2018-07-27T08:29:08.423Z,31.35
2018-07-27T08:30:08.438Z,31.02
2018-07-27T08:31:08.438Z,31.26
2018-07-27T08:32:08.451Z,31.79
2018-07-27T08:33:08.470Z,31.93
2018-07-27T08:34:08.488Z,31.18
2018-07-27T08:35:08.508Z,31.24
2018-07-27T08:36:08.522Z,31.17
2018-07-27T08:37:08.538Z,30.40
2018-07-27T08:38:08.556Z,30.72
2018-07-27T08:39:08.576Z,31.01
2018-07-27T08:40:08.591Z,31.24
2018-07-27T08:41:08.609Z,31.43
2018-07-27T08:42:08.622Z,31.24
2018-07-27T08:43:08.644Z,31.42
2018-07-27T08:44:08.661Z,31.33
2018-07-27T08:45:08.678Z,31.26
2018-07-27T08:46:08.695Z,31.02
2018-07-27T08:47:08.772Z,30.53
2018-07-27T08:48:08.729Z,31.17
2018-07-27T08:49:08.749Z,31.48
2018-07-27T08:50:08.765Z,30.74
2018-07-27T08:51:08.810Z,30.74
2018-07-27T08:52:08.814Z,31.06
2018-07-27T08:53:08.821Z,31.23
2018-07-27T08:54:08.856Z,30.94
2018-07-27T08:55:08.855Z,30.14
2018-07-27T08:56:08.872Z,30.49
2018-07-27T08:57:08.891Z,31.42
2018-07-27T08:58:08.905Z,31.13
2018-07-27T08:59:08.931Z,31.55
2018-07-27T09:00:08.940Z,31.88
2018-07-27T09:01:08.960Z,31.77
2018-07-27T09:02:08.977Z,31.45
2018-07-27T09:03:08.992Z,31.46
2018-07-27T09:04:09.009Z,31.72
2018-07-27T09:05:09.028Z,32.47
2018-07-27T09:06:09.050Z,32.15
2018-07-27T09:07:09.063Z,31.46
2018-07-27T09:08:09.080Z,31.42
2018-07-27T09:09:09.141Z,31.62
2018-07-27T09:10:09.117Z,31.84
2018-07-27T09:11:09.122Z,31.31
2018-07-27T09:12:09.155Z,31.54
2018-07-27T09:13:09.167Z,32.36
2018-07-27T09:14:09.184Z,31.28
2018-07-27T09:15:09.242Z,31.35
2018-07-27T09:16:09.219Z,31.57
2018-07-27T09:17:09.377Z,31.91
2018-07-27T09:18:09.261Z,32.32
2018-07-27T09:19:09.272Z,32.05
2018-07-27T09:20:09.294Z,32.64
2018-07-27T09:21:09.315Z,32.22
2018-07-27T09:22:09.331Z,32.42
2018-07-27T09:23:09.344Z,32.96
2018-07-27T09:24:09.415Z,32.27
2018-07-27T09:25:09.745Z,32.39
2018-07-27T09:26:09.399Z,31.82
2018-07-27T09:27:09.418Z,32.42
2018-07-27T09:28:09.435Z,31.62
2018-07-27T09:29:09.450Z,31.80
2018-07-27T09:30:09.460Z,32.84
2018-07-27T09:31:09.489Z,32.49
2018-07-27T09:32:09.507Z,32.14
2018-07-27T09:33:09.523Z,31.68
2018-07-27T09:34:09.592Z,31.72
2018-07-27T09:35:09.625Z,31.39
2018-07-27T09:36:09.578Z,31.62
2018-07-27T09:37:09.599Z,31.38
2018-07-27T09:38:09.616Z,32.03
2018-07-27T09:39:09.635Z,33.13
2018-07-27T09:40:09.653Z,33.49
2018-07-27T09:41:09.670Z,33.22
2018-07-27T09:42:09.689Z,33.82
2018-07-27T09:43:09.709Z,34.35
2018-07-27T09:44:09.728Z,34.35
2018-07-27T09:45:09.757Z,34.02
2018-07-27T09:46:10.494Z,33.98
2018-07-27T09:47:09.778Z,33.97
2018-07-27T09:48:09.793Z,33.55
2018-07-27T09:49:09.817Z,33.08
2018-07-27T09:50:09.835Z,32.70
2018-07-27T09:51:09.851Z,32.35
2018-07-27T09:53:10.038Z,33.17
2018-07-27T09:54:09.907Z,33.31
2018-07-27T09:55:09.929Z,33.39
2018-07-27T09:56:09.945Z,33.89
2018-07-27T09:57:09.966Z,33.19
2018-07-27T09:58:09.987Z,32.91
2018-07-27T09:59:10.001Z,32.86
2018-07-27T10:00:10.022Z,32.71
2018-07-27T10:01:10.047Z,32.61
2018-07-27T10:02:10.057Z,32.89
2018-07-27T10:03:10.077Z,32.98
2018-07-27T10:04:10.093Z,32.32
2018-07-27T10:05:10.115Z,31.73
2018-07-27T10:06:10.135Z,31.53
2018-07-27T10:07:10.149Z,31.57
2018-07-27T10:08:10.167Z,31.85
2018-07-27T10:09:10.203Z,32.64
2018-07-27T10:10:10.206Z,33.01
2018-07-27T10:11:10.225Z,33.74
2018-07-27T10:12:10.246Z,33.87
2018-07-27T10:13:10.254Z,33.83
2018-07-27T10:14:10.280Z,33.76
2018-07-27T10:15:10.297Z,34.23
2018-07-27T10:16:10.318Z,33.43
2018-07-27T10:17:10.349Z,33.79
2018-07-27T10:18:10.360Z,33.65
2018-07-27T10:19:10.391Z,32.77
2018-07-27T10:20:10.412Z,32.59
2018-07-27T10:21:10.409Z,32.70
2018-07-27T10:22:10.426Z,32.27
2018-07-27T10:23:10.445Z,32.49
2018-07-27T10:24:10.510Z,32.29
2018-07-27T10:25:10.481Z,31.96
2018-07-27T10:26:10.507Z,32.96
2018-07-27T10:27:10.522Z,33.45
2018-07-27T10:28:10.545Z,32.54
2018-07-27T10:29:10.563Z,33.53
2018-07-27T10:30:10.615Z,32.71
2018-07-27T10:31:10.598Z,33.27
2018-07-27T10:32:10.608Z,33.60
2018-07-27T10:33:10.630Z,33.83
2018-07-27T10:34:10.649Z,34.19
2018-07-27T10:35:10.667Z,32.84
2018-07-27T10:36:10.685Z,32.36
2018-07-27T10:37:10.721Z,32.17
2018-07-27T10:38:10.725Z,32.30
2018-07-27T10:39:10.739Z,32.06
2018-07-27T10:40:10.754Z,32.05
2018-07-27T10:41:10.777Z,32.59
2018-07-27T10:42:10.794Z,32.42
2018-07-27T10:43:10.816Z,32.85
2018-07-27T10:44:10.830Z,32.99
2018-07-27T10:45:10.861Z,31.92
2018-07-27T10:46:10.868Z,31.53
2018-07-27T10:47:11.470Z,31.42
2018-07-27T10:48:10.900Z,31.57
2018-07-27T10:49:10.920Z,32.47
2018-07-27T10:50:10.954Z,32.88
2018-07-27T10:51:10.957Z,32.44
2018-07-27T10:52:10.997Z,33.10
2018-07-27T10:53:11.086Z,33.14
2018-07-27T10:54:11.029Z,32.30
2018-07-27T10:55:11.033Z,32.57
2018-07-27T10:56:11.043Z,32.92
2018-07-27T10:57:11.065Z,33.06
2018-07-27T10:58:11.135Z,33.39
2018-07-27T10:59:11.098Z,32.47
2018-07-27T11:00:11.140Z,32.27
2018-07-27T11:01:11.136Z,31.93
2018-07-27T11:02:11.160Z,32.29
2018-07-27T11:03:11.176Z,32.67
2018-07-27T11:04:11.192Z,32.66
2018-07-27T11:05:11.204Z,32.44
2018-07-27T11:06:11.228Z,32.71
2018-07-27T11:07:11.241Z,32.84
2018-07-27T11:08:11.258Z,33.73
2018-07-27T11:09:11.278Z,34.11
2018-07-27T11:10:11.297Z,34.80
2018-07-27T11:11:11.313Z,34.91
2018-07-27T11:12:11.330Z,33.82
2018-07-27T11:13:11.345Z,33.37
2018-07-27T11:14:11.365Z,33.14
2018-07-27T11:15:11.417Z,32.84
2018-07-27T11:16:11.418Z,32.11
2018-07-27T11:17:11.418Z,32.30
2018-07-27T11:18:11.437Z,32.57
2018-07-27T11:19:11.457Z,32.85
2018-07-27T11:20:11.478Z,32.98
2018-07-27T11:21:11.492Z,33.71
2018-07-27T11:22:12.507Z,33.53
2018-07-27T11:23:11.529Z,33.89
2018-07-27T11:24:11.545Z,33.79
2018-07-27T11:25:11.564Z,33.52
2018-07-27T11:26:11.582Z,33.97
2018-07-27T11:27:11.599Z,33.52
2018-07-27T11:28:11.640Z,33.85
2018-07-27T11:29:11.636Z,34.45
2018-07-27T11:30:11.709Z,35.48
2018-07-27T11:31:11.678Z,35.01
2018-07-27T11:32:11.690Z,35.06
2018-07-27T11:33:11.706Z,34.19
2018-07-27T11:34:11.724Z,33.14
2018-07-27T11:35:11.751Z,33.26
2018-07-27T11:36:11.763Z,33.87
2018-07-27T11:37:11.781Z,33.43
2018-07-27T11:38:11.803Z,33.07
2018-07-27T11:39:11.819Z,33.89
2018-07-27T11:40:11.835Z,33.95
2018-07-27T11:41:11.855Z,33.67
2018-07-27T11:42:11.928Z,33.86
2018-07-27T11:43:11.933Z,33.46
2018-07-27T11:44:11.911Z,33.10
2018-07-27T11:45:12.022Z,33.13
2018-07-27T11:46:11.948Z,32.89
2018-07-27T11:47:11.986Z,32.71
2018-07-27T11:48:11.981Z,32.86
2018-07-27T11:49:12.002Z,33.49
2018-07-27T11:50:12.021Z,33.11
2018-07-27T11:51:12.040Z,32.93
2018-07-27T11:52:12.055Z,33.79
2018-07-27T11:53:12.078Z,34.07
2018-07-27T11:54:12.094Z,34.07
2018-07-27T11:55:12.112Z,34.56
2018-07-27T11:56:12.130Z,34.66
2018-07-27T11:57:12.149Z,34.39
2018-07-27T11:58:12.164Z,34.70
2018-07-27T11:59:12.182Z,34.39
2018-07-27T12:00:12.238Z,34.64
2018-07-27T12:01:12.219Z,34.92
2018-07-27T12:02:12.229Z,35.03
2018-07-27T12:03:12.256Z,35.10
2018-07-27T12:04:12.271Z,34.19
2018-07-27T12:05:12.295Z,33.39
2018-07-27T12:06:13.125Z,33.86
2018-07-27T12:07:12.402Z,34.56
2018-07-27T12:08:12.347Z,34.74
2018-07-27T12:09:12.366Z,34.56
2018-07-27T12:10:12.385Z,34.08
2018-07-27T12:11:12.402Z,34.02
2018-07-27T12:12:12.422Z,34.36
2018-07-27T12:13:12.442Z,34.20
2018-07-27T12:14:12.649Z,34.70
2018-07-27T12:15:12.782Z,34.73
2018-07-27T12:16:12.497Z,33.43
2018-07-27T12:17:12.512Z,33.87
2018-07-27T12:18:12.529Z,33.92
2018-07-27T12:19:12.555Z,33.68
2018-07-27T12:20:12.564Z,33.97
2018-07-27T12:21:12.718Z,34.42
2018-07-27T12:22:12.602Z,35.13
2018-07-27T12:23:12.621Z,34.02
2018-07-27T12:24:12.637Z,34.34
2018-07-27T12:25:12.660Z,34.24
2018-07-27T12:26:12.678Z,34.02
2018-07-27T12:27:12.711Z,34.45
2018-07-27T12:28:12.726Z,34.38
2018-07-27T12:29:12.726Z,34.22
2018-07-27T12:30:12.748Z,33.64
2018-07-27T12:31:12.763Z,34.09
2018-07-27T12:32:12.780Z,34.17
2018-07-27T12:33:12.802Z,33.95
2018-07-27T12:34:12.839Z,32.51
2018-07-27T12:35:12.837Z,32.32
2018-07-27T12:36:12.851Z,31.88
2018-07-27T12:37:12.873Z,32.11
2018-07-27T12:38:12.883Z,32.10
2018-07-27T12:39:12.908Z,31.82
2018-07-27T12:40:12.921Z,31.54
2018-07-27T12:41:12.940Z,31.43
2018-07-27T12:42:12.953Z,31.33
2018-07-27T12:43:12.973Z,31.54
2018-07-27T12:44:13.005Z,31.55
2018-07-27T12:45:13.003Z,31.26
2018-07-27T12:46:13.012Z,31.40
2018-07-27T12:47:13.027Z,31.50
2018-07-27T12:48:13.048Z,31.54
2018-07-27T12:49:13.050Z,31.28
2018-07-27T12:50:13.066Z,31.50
2018-07-27T12:51:13.127Z,31.61
2018-07-27T12:52:13.084Z,31.45
2018-07-27T12:53:13.097Z,31.23
2018-07-27T12:54:13.106Z,31.33
2018-07-27T12:55:13.118Z,31.15
2018-07-27T12:56:13.125Z,31.01
2018-07-27T12:57:13.141Z,30.52
2018-07-27T12:58:13.145Z,30.74
2018-07-27T12:59:13.157Z,30.52
2018-07-27T13:00:13.164Z,30.47
2018-07-27T13:01:13.171Z,30.54
2018-07-27T13:02:13.181Z,30.59
2018-07-27T13:03:13.188Z,30.76
2018-07-27T13:04:13.197Z,30.59
2018-07-27T13:05:13.256Z,30.52
2018-07-27T13:06:13.215Z,30.62
2018-07-27T13:07:13.229Z,30.37
2018-07-27T13:08:13.228Z,30.53
2018-07-27T13:09:13.234Z,30.61
2018-07-27T13:10:13.242Z,30.56
2018-07-27T13:11:13.251Z,30.43
2018-07-27T13:12:13.259Z,30.34
2018-07-27T13:13:13.310Z,30.31
2018-07-27T13:14:13.270Z,30.02
2018-07-27T13:15:13.285Z,30.29
2018-07-27T13:16:13.286Z,30.27
2018-07-27T13:17:13.294Z,30.21
2018-07-27T13:18:13.301Z,30.30
2018-07-27T13:19:13.306Z,30.08
2018-07-27T13:20:13.312Z,29.97
2018-07-27T13:21:13.318Z,29.99
2018-07-27T13:22:13.366Z,30.09
2018-07-27T13:23:13.333Z,30.15
2018-07-27T13:24:13.346Z,30.16
2018-07-27T13:25:13.403Z,30.24
2018-07-27T13:26:28.186Z,30.29
2018-07-27T13:27:13.358Z,30.40
2018-07-27T13:28:13.367Z,30.59
2018-07-27T13:29:13.386Z,30.69
2018-07-27T13:30:13.376Z,30.80
2018-07-27T13:31:13.393Z,30.74
2018-07-27T13:32:13.381Z,30.65
2018-07-27T13:33:13.405Z,30.54
2018-07-27T13:34:13.412Z,30.33
2018-07-27T13:36:13.443Z,30.18
2018-07-27T13:37:13.444Z,30.26
2018-07-27T13:38:13.492Z,30.21
2018-07-27T13:39:13.452Z,30.19
2018-07-27T13:40:13.473Z,30.47
2018-07-27T13:41:13.445Z,30.36
2018-07-27T13:42:13.449Z,29.94
2018-07-27T13:43:13.458Z,29.81
2018-07-27T13:44:13.461Z,29.45
2018-07-27T13:45:13.468Z,29.47
2018-07-27T13:46:13.478Z,29.63
2018-07-27T13:47:13.482Z,29.75
2018-07-27T13:48:13.489Z,29.84
2018-07-27T13:49:13.520Z,29.84
2018-07-27T13:50:13.497Z,29.66
2018-07-27T13:51:13.504Z,29.70
2018-07-27T13:52:13.506Z,29.70
2018-07-27T13:53:13.516Z,29.72
2018-07-27T13:54:13.529Z,29.89
2018-07-27T13:55:13.529Z,29.86
2018-07-27T13:56:13.532Z,29.93
2018-07-27T13:57:13.539Z,29.99
2018-07-27T13:58:13.551Z,29.89
2018-07-27T13:59:13.551Z,29.96
2018-07-27T14:00:13.556Z,29.96
2018-07-27T14:01:13.562Z,29.93
2018-07-27T14:02:13.567Z,29.96
2018-07-27T14:03:13.573Z,29.99
2018-07-27T14:04:13.575Z,30.14
2018-07-27T14:05:13.590Z,30.38
2018-07-27T14:06:13.590Z,30.30
2018-07-27T14:07:13.608Z,30.09
2018-07-27T14:08:13.601Z,29.79
2018-07-27T14:09:13.607Z,29.81
2018-07-27T14:10:13.612Z,29.86
2018-07-27T14:11:13.620Z,30.02
2018-07-27T14:12:13.622Z,30.18
2018-07-27T14:13:13.628Z,30.11
2018-07-27T14:14:13.673Z,30.05
2018-07-27T14:15:13.640Z,30.09
2018-07-27T14:16:13.647Z,30.37
2018-07-27T14:17:13.647Z,30.50
2018-07-27T14:18:13.675Z,30.26
2018-07-27T14:19:13.666Z,30.36
2018-07-27T14:20:13.674Z,30.40
2018-07-27T14:21:13.678Z,30.26
2018-07-27T14:22:13.680Z,30.46
2018-07-27T14:23:13.688Z,30.34
2018-07-27T14:24:13.711Z,30.36
2018-07-27T14:25:13.700Z,30.29
2018-07-27T14:26:13.702Z,30.03
2018-07-27T14:27:13.709Z,30.03
2018-07-27T14:28:13.712Z,30.11
2018-07-27T14:29:13.755Z,30.15
2018-07-27T14:30:13.763Z,30.29
2018-07-27T14:31:13.728Z,30.43
2018-07-27T14:32:13.738Z,30.47
2018-07-27T14:33:13.751Z,30.46
2018-07-27T14:34:13.744Z,30.29
2018-07-27T14:35:13.750Z,30.34
2018-07-27T14:36:13.762Z,30.12
2018-07-27T14:37:13.768Z,29.99
2018-07-27T14:38:13.771Z,30.02
2018-07-27T14:39:13.841Z,30.08
2018-07-27T14:40:13.778Z,30.18
2018-07-27T14:41:13.783Z,30.21
2018-07-27T14:42:13.790Z,30.23
2018-07-27T14:43:13.795Z,30.30
2018-07-27T14:44:13.798Z,30.00
2018-07-27T14:45:13.850Z,29.97
2018-07-27T14:46:13.814Z,30.11
2018-07-27T14:47:13.817Z,29.87
2018-07-27T14:48:13.824Z,30.02
2018-07-27T14:49:13.829Z,30.08
2018-07-27T14:50:13.833Z,30.18
2018-07-27T14:51:13.826Z,29.90
2018-07-27T14:52:13.913Z,29.86
2018-07-27T14:53:13.853Z,29.96
2018-07-27T14:54:13.854Z,29.89
2018-07-27T14:55:14.460Z,29.87
2018-07-27T14:56:13.868Z,29.96
2018-07-27T14:57:13.869Z,29.99
2018-07-27T14:58:13.880Z,30.18
2018-07-27T14:59:13.881Z,30.46
2018-07-27T15:00:13.885Z,30.52
2018-07-27T15:01:13.890Z,30.23
2018-07-27T15:02:13.897Z,30.30
2018-07-27T15:03:13.897Z,30.47
2018-07-27T15:04:13.907Z,30.30
2018-07-27T15:05:13.914Z,30.31
2018-07-27T15:06:13.918Z,30.16
2018-07-27T15:07:13.936Z,30.12
2018-07-27T15:08:13.923Z,30.07
2018-07-27T15:09:13.931Z,30.00
2018-07-27T15:10:13.943Z,30.15
2018-07-27T15:11:13.946Z,30.18
2018-07-27T15:12:13.949Z,30.07
2018-07-27T15:13:13.955Z,29.94
2018-07-27T15:14:13.986Z,29.86
2018-07-27T15:15:14.036Z,29.65